createdAt,value
2023-05-15T00:00:01.764Z,88.4
2023-05-15T00:01:03.857Z,88.4
2023-05-15T00:02:01.683Z,88.4
2023-05-15T00:03:02.330Z,88.4
2023-05-15T00:04:01.594Z,88.4
2023-05-15T00:05:02.154Z,88.4
2023-05-15T00:06:01.595Z,88.4
2023-05-15T00:07:03.778Z,88.4
2023-05-15T00:08:01.510Z,88.4
2023-05-15T00:09:02.007Z,88.4
2023-05-15T00:10:01.517Z,88.4
2023-05-15T00:11:02.355Z,88.4
2023-05-15T00:12:01.434Z,88.4
2023-05-15T00:13:01.942Z,88.4
2023-05-15T00:14:03.039Z,88.4
2023-05-15T00:15:01.830Z,88.4
2023-05-15T00:16:01.411Z,88.5
2023-05-15T00:17:01.851Z,88.5
2023-05-15T00:18:02.438Z,88.5
2023-05-15T00:19:01.813Z,88.5
2023-05-15T00:20:02.234Z,88.5
2023-05-15T00:21:01.771Z,88.5
2023-05-15T00:22:02.244Z,88.6
2023-05-15T00:23:01.677Z,88.6
2023-05-15T00:24:02.189Z,88.6
2023-05-15T00:25:01.604Z,88.6
2023-05-15T00:26:02.070Z,88.6
2023-05-15T00:27:01.598Z,88.6
2023-05-15T00:28:02.068Z,88.6
2023-05-15T00:29:03.196Z,88.6
2023-05-15T00:30:02.012Z,88.7
2023-05-15T00:31:01.525Z,88.7
2023-05-15T00:32:01.923Z,88.7
2023-05-15T00:33:01.525Z,88.7
2023-05-15T00:34:01.946Z,88.8
2023-05-15T00:35:01.421Z,88.7
2023-05-15T00:36:01.829Z,88.8
2023-05-15T00:37:01.363Z,88.8
2023-05-15T00:38:01.839Z,88.8
2023-05-15T00:39:02.939Z,88.8
2023-05-15T00:40:01.862Z,88.8
2023-05-15T00:41:02.127Z,88.8
2023-05-15T00:42:02.343Z,88.7
2023-05-15T00:43:02.336Z,88.7
2023-05-15T00:44:01.768Z,88.7
2023-05-15T00:45:02.320Z,88.7
2023-05-15T00:46:01.941Z,88.6
2023-05-15T00:47:03.356Z,88.6
2023-05-15T00:48:02.248Z,88.6
2023-05-15T00:49:01.708Z,88.5
2023-05-15T00:50:02.170Z,88.5
2023-05-15T00:51:01.609Z,88.3
2023-05-15T00:52:02.106Z,88.2
2023-05-15T00:53:01.553Z,88.1
2023-05-15T00:54:02.068Z,87.9
2023-05-15T00:55:01.536Z,87.7
2023-05-15T00:56:03.603Z,87.7
2023-05-15T00:57:01.445Z,87.6
2023-05-15T00:58:01.951Z,87.6
2023-05-15T00:59:01.381Z,87.5
2023-05-15T01:00:01.851Z,87.5
2023-05-15T01:02:01.816Z,87.6
2023-05-15T01:03:02.411Z,87.5
2023-05-15T01:04:01.783Z,87.5
2023-05-15T01:05:02.240Z,87.4
2023-05-15T01:06:01.698Z,87.4
2023-05-15T01:07:02.210Z,87.4
2023-05-15T01:08:01.680Z,87.1
2023-05-15T01:09:02.269Z,87.1
2023-05-15T01:10:01.610Z,87.2
2023-05-15T01:11:02.086Z,87.2
2023-05-15T01:12:01.548Z,87.2
2023-05-15T01:13:03.667Z,87.3
2023-05-15T01:14:03.203Z,87.2
2023-05-15T01:15:02.015Z,87.1
2023-05-15T01:16:01.453Z,87
2023-05-15T01:17:01.946Z,86.9
2023-05-15T01:18:01.462Z,86.8
2023-05-15T01:19:02.048Z,86.5
2023-05-15T01:20:01.432Z,86.3
2023-05-15T01:21:01.887Z,86.2
2023-05-15T01:22:02.325Z,86.3
2023-05-15T01:23:01.792Z,86.3
2023-05-15T01:24:02.250Z,86.3
2023-05-15T01:25:01.765Z,86.1
2023-05-15T01:26:02.240Z,85.8
2023-05-15T01:27:01.685Z,85.5
2023-05-15T01:28:02.197Z,85.2
2023-05-15T01:29:01.617Z,85.6
2023-05-15T01:30:02.178Z,86
2023-05-15T01:31:01.623Z,85.9
2023-05-15T01:32:02.130Z,86.2
2023-05-15T01:33:01.651Z,86.4
2023-05-15T01:34:03.702Z,86.5
2023-05-15T01:35:03.204Z,86.5
2023-05-15T01:36:02.016Z,86.4
2023-05-15T01:37:01.433Z,86.5
2023-05-15T01:38:01.917Z,86.5
2023-05-15T01:39:01.433Z,86.7
2023-05-15T01:40:03.534Z,86.9
2023-05-15T01:41:01.412Z,87.1
2023-05-15T01:42:01.847Z,87
2023-05-15T01:44:01.766Z,86.9
2023-05-15T01:45:02.241Z,86.8
2023-05-15T01:46:01.816Z,86.7
2023-05-15T01:47:02.231Z,86.8
2023-05-15T01:48:01.716Z,87
2023-05-15T01:49:02.163Z,87.1
2023-05-15T01:50:01.639Z,87.3
2023-05-15T01:51:02.176Z,87.2
2023-05-15T01:52:01.599Z,87.3
2023-05-15T01:53:02.090Z,87.3
2023-05-15T01:54:03.196Z,87.3
2023-05-15T01:55:02.245Z,87.4
2023-05-15T01:56:01.853Z,87.6
2023-05-15T01:57:01.563Z,87.7
2023-05-15T01:58:01.933Z,87.7
2023-05-15T01:59:01.453Z,87.7
2023-05-15T02:00:01.971Z,87.8
2023-05-15T02:01:03.055Z,88
2023-05-15T02:02:01.871Z,87.9
2023-05-15T02:03:09.044Z,87.8
2023-05-15T02:04:03.536Z,87.8
2023-05-15T02:05:02.235Z,87.9
2023-05-15T02:06:01.695Z,88
2023-05-15T02:07:02.182Z,87.9
2023-05-15T02:08:01.643Z,87.7
2023-05-15T02:09:02.084Z,87.5
2023-05-15T02:10:01.613Z,87.5
2023-05-15T02:11:02.092Z,87.6
2023-05-15T02:12:01.541Z,87.7
2023-05-15T02:13:02.013Z,87.7
2023-05-15T02:14:01.444Z,87.7
2023-05-15T02:15:01.939Z,87.7
2023-05-15T02:16:01.402Z,87.7
2023-05-15T02:17:01.906Z,87.5
2023-05-15T02:18:01.378Z,87.4
2023-05-15T02:19:01.881Z,87.5
2023-05-15T02:20:03.997Z,87.6
2023-05-15T02:21:01.769Z,87.7
2023-05-15T02:22:02.254Z,87.8
2023-05-15T02:23:01.680Z,87.8
2023-05-15T02:24:02.177Z,87.7
2023-05-15T02:25:01.733Z,87.4
2023-05-15T02:26:02.166Z,87.4
2023-05-15T02:27:01.616Z,87.5
2023-05-15T02:28:02.097Z,87.5
2023-05-15T02:29:01.543Z,87.5
2023-05-15T02:30:02.034Z,87.6
2023-05-15T02:31:01.459Z,87.7
2023-05-15T02:32:01.967Z,87.8
2023-05-15T02:33:03.164Z,87.8
2023-05-15T02:34:01.947Z,87.9
2023-05-15T02:35:01.392Z,87.9
2023-05-15T02:36:01.885Z,87.9
2023-05-15T02:37:02.331Z,87.9
2023-05-15T02:38:01.796Z,87.8
2023-05-15T02:39:02.253Z,87.8
2023-05-15T02:40:01.703Z,87.8
2023-05-15T02:41:02.196Z,87.9
2023-05-15T02:42:01.705Z,87.9
2023-05-15T02:43:02.185Z,87.8
2023-05-15T02:44:01.616Z,87.9
2023-05-15T02:45:02.090Z,88.1
2023-05-15T02:46:03.290Z,88.1
2023-05-15T02:47:03.686Z,88.1
2023-05-15T02:48:03.309Z,88.1
2023-05-15T02:49:01.929Z,88.1
2023-05-15T02:50:03.050Z,88.2
2023-05-15T02:51:03.554Z,88.2
2023-05-15T02:52:01.376Z,88.2
2023-05-15T02:53:01.860Z,88.2
2023-05-15T02:54:03.970Z,88
2023-05-15T02:55:03.442Z,88.1
2023-05-15T02:56:02.251Z,88.2
2023-05-15T02:57:01.704Z,88.2
2023-05-15T02:58:03.846Z,88.2
2023-05-15T02:59:01.604Z,88.2
2023-05-15T03:00:02.081Z,88.2
2023-05-15T03:01:01.762Z,88.3
2023-05-15T03:02:02.192Z,88.3
2023-05-15T03:03:01.647Z,88.3
2023-05-15T03:04:02.125Z,88.3
2023-05-15T03:05:01.604Z,88.3
2023-05-15T03:06:02.101Z,88.2
2023-05-15T03:07:01.554Z,88.2
2023-05-15T03:08:02.008Z,88.3
2023-05-15T03:09:01.450Z,88.3
2023-05-15T03:10:01.918Z,88.3
2023-05-15T03:11:03.128Z,88.3
2023-05-15T03:12:01.947Z,88.4
2023-05-15T03:13:01.347Z,88.4
2023-05-15T03:14:01.834Z,88.4
2023-05-15T03:15:03.048Z,88.4
2023-05-15T03:16:01.846Z,88.3
2023-05-15T03:17:04.084Z,88.4
2023-05-15T03:18:01.783Z,88.4
2023-05-15T03:19:03.954Z,88.4
2023-05-15T03:20:03.355Z,88.4
2023-05-15T03:21:02.258Z,88.4
2023-05-15T03:22:03.391Z,88.5
2023-05-15T03:23:03.836Z,88.5
2023-05-15T03:24:01.604Z,88.5
2023-05-15T03:25:02.095Z,88.5
2023-05-15T03:26:01.610Z,88.5
2023-05-15T03:27:02.091Z,88.5
2023-05-15T03:28:03.210Z,88.6
2023-05-15T03:29:02.025Z,88.5
2023-05-15T03:30:01.513Z,88.5
2023-05-15T03:31:02.069Z,88.5
2023-05-15T03:32:01.463Z,88.6
2023-05-15T03:33:02.024Z,88.6
2023-05-15T03:34:01.444Z,88.6
2023-05-15T03:35:01.925Z,88.6
2023-05-15T03:36:01.358Z,88.6
2023-05-15T03:37:01.864Z,88.7
2023-05-15T03:38:01.371Z,88.7
2023-05-15T03:39:03.442Z,88.6
2023-05-15T03:40:02.353Z,88.6
2023-05-15T03:41:01.755Z,88.6
2023-05-15T03:42:02.266Z,88.6
2023-05-15T03:43:01.669Z,88.6
2023-05-15T03:44:03.826Z,88.6
2023-05-15T03:45:01.681Z,88.6
2023-05-15T03:46:02.245Z,88.7
2023-05-15T03:47:01.746Z,88.7
2023-05-15T03:48:02.109Z,88.7
2023-05-15T03:49:01.590Z,88.7
2023-05-15T03:50:02.075Z,88.8
2023-05-15T03:51:01.522Z,88.7
2023-05-15T03:52:02.008Z,88.8
2023-05-15T03:53:01.543Z,88.8
2023-05-15T03:54:03.695Z,88.8
2023-05-15T03:55:01.492Z,88.7
2023-05-15T03:56:01.919Z,88.7
2023-05-15T03:57:03.027Z,88.7
2023-05-15T03:58:01.942Z,88.7
2023-05-15T03:59:01.364Z,88.7
2023-05-15T04:00:03.511Z,88.8
2023-05-15T04:01:01.361Z,88.8
2023-05-15T04:02:05.510Z,88.8
2023-05-15T04:03:02.517Z,88.8
2023-05-15T04:04:03.447Z,88.8
2023-05-15T04:05:02.264Z,88.8
2023-05-15T04:06:04.457Z,88.8
2023-05-15T04:07:02.241Z,88.8
2023-05-15T04:08:01.687Z,88.8
2023-05-15T04:09:02.150Z,88.8
2023-05-15T04:10:01.627Z,88.8
2023-05-15T04:11:02.090Z,88.9
2023-05-15T04:12:03.213Z,88.9
2023-05-15T04:13:02.010Z,88.9
2023-05-15T04:14:01.440Z,88.8
2023-05-15T04:15:01.909Z,88.8
2023-05-15T04:16:01.376Z,88.8
2023-05-15T04:17:01.875Z,88.9
2023-05-15T04:18:01.375Z,88.9
2023-05-15T04:19:01.898Z,88.9
2023-05-15T04:20:02.239Z,88.9
2023-05-15T04:21:03.454Z,88.9
2023-05-15T04:22:02.250Z,88.9
2023-05-15T04:23:03.349Z,88.9
2023-05-15T04:24:03.830Z,89
2023-05-15T04:25:01.771Z,89
2023-05-15T04:26:02.066Z,89
2023-05-15T04:27:01.582Z,89
2023-05-15T04:28:03.667Z,89
2023-05-15T04:29:04.363Z,89
2023-05-15T04:30:01.935Z,89
2023-05-15T04:31:01.435Z,89
2023-05-15T04:32:01.964Z,89
2023-05-15T04:33:01.429Z,88.9
2023-05-15T04:34:01.834Z,88.8
2023-05-15T04:35:01.363Z,88.8
2023-05-15T04:36:01.843Z,88.9
2023-05-15T04:37:02.333Z,88.9
2023-05-15T04:38:03.430Z,89
2023-05-15T04:39:02.241Z,89
2023-05-15T04:40:01.710Z,88.9
2023-05-15T04:41:03.827Z,88.9
2023-05-15T04:42:01.693Z,88.9
2023-05-15T04:43:02.158Z,88.9
2023-05-15T04:44:03.280Z,88.9
2023-05-15T04:45:02.080Z,88.9
2023-05-15T04:46:01.635Z,88.9
2023-05-15T04:47:02.112Z,88.9
2023-05-15T04:48:01.547Z,88.9
2023-05-15T04:49:02.001Z,88.9
2023-05-15T04:50:01.534Z,88.9
2023-05-15T04:51:01.995Z,88.9
2023-05-15T04:52:01.449Z,89
2023-05-15T04:53:01.944Z,89
2023-05-15T04:54:01.442Z,89.1
2023-05-15T04:55:01.944Z,89.1
2023-05-15T04:56:01.360Z,89.1
2023-05-15T04:57:01.837Z,89.2
2023-05-15T04:58:01.378Z,89.2
2023-05-15T04:59:01.831Z,89.2
2023-05-15T05:00:02.307Z,89.3
2023-05-15T05:01:04.366Z,89.3
2023-05-15T05:02:03.406Z,89.3
2023-05-15T05:03:03.728Z,89.3
2023-05-15T05:04:01.470Z,89.4
2023-05-15T05:05:03.773Z,89.4
2023-05-15T05:06:01.752Z,89.4
2023-05-15T05:07:02.234Z,89.4
2023-05-15T05:08:01.909Z,89.4
2023-05-15T05:09:01.484Z,89.5
2023-05-15T05:10:03.602Z,89.5
2023-05-15T05:11:01.504Z,89.4
2023-05-15T05:12:01.920Z,89.4
2023-05-15T05:13:01.361Z,89.4
2023-05-15T05:14:01.837Z,89.5
2023-05-15T05:15:02.314Z,89.5
2023-05-15T05:16:01.929Z,89.4
2023-05-15T05:17:03.837Z,89.4
2023-05-15T05:18:01.763Z,89.4
2023-05-15T05:19:03.885Z,89.4
2023-05-15T05:20:03.337Z,89.4
2023-05-15T05:21:03.762Z,89.5
2023-05-15T05:22:03.192Z,89.5
2023-05-15T05:23:03.698Z,89.4
2023-05-15T05:24:01.438Z,89.5
2023-05-15T05:25:01.941Z,89.4
2023-05-15T05:26:01.858Z,89.4
2023-05-15T05:27:03.520Z,89.4
2023-05-15T05:28:02.363Z,89.4
2023-05-15T05:29:01.791Z,89.4
2023-05-15T05:30:02.320Z,89.3
2023-05-15T05:31:03.381Z,89.3
2023-05-15T05:32:02.260Z,89.3
2023-05-15T05:33:01.632Z,89.3
2023-05-15T05:34:02.092Z,89.2
2023-05-15T05:35:03.315Z,89.1
2023-05-15T05:36:02.096Z,89
2023-05-15T05:37:01.553Z,89
2023-05-15T05:38:02.022Z,88.9
2023-05-15T05:39:01.425Z,88.9
2023-05-15T05:40:01.926Z,88.8
2023-05-15T05:41:01.392Z,88.8
2023-05-15T05:42:01.843Z,88.7
2023-05-15T05:43:01.374Z,88.6
2023-05-15T05:44:01.778Z,88.6
2023-05-15T05:45:02.253Z,88.5
2023-05-15T05:46:01.800Z,88.5
2023-05-15T05:47:03.893Z,88.4
2023-05-15T05:48:03.445Z,88.3
2023-05-15T05:49:02.156Z,88.2
2023-05-15T05:50:01.617Z,88.1
2023-05-15T05:51:02.099Z,88
2023-05-15T05:52:01.521Z,87.9
2023-05-15T05:53:01.997Z,87.7
2023-05-15T05:54:01.447Z,87.6
2023-05-15T05:55:01.921Z,87.4
2023-05-15T05:56:01.463Z,87.4
2023-05-15T05:57:01.930Z,87.3
2023-05-15T05:58:02.238Z,87.1
2023-05-15T05:59:01.885Z,87
2023-05-15T06:00:02.319Z,86.9
2023-05-15T06:01:03.457Z,86.8
2023-05-15T06:02:02.313Z,86.7
2023-05-15T06:03:01.905Z,86.5
2023-05-15T06:04:02.343Z,86.4
2023-05-15T06:05:01.705Z,86.3
2023-05-15T06:06:02.099Z,86.3
2023-05-15T06:07:01.624Z,85.9
2023-05-15T06:08:02.099Z,85.5
2023-05-15T06:09:01.529Z,85.5
2023-05-15T06:10:02.004Z,85.4
2023-05-15T06:11:01.453Z,85.4
2023-05-15T06:12:01.957Z,85.1
2023-05-15T06:13:01.413Z,85.2
2023-05-15T06:14:01.850Z,85.3
2023-05-15T06:15:01.381Z,85
2023-05-15T06:16:01.869Z,84.5
2023-05-15T06:17:02.613Z,84.1
2023-05-15T06:18:02.297Z,83.9
2023-05-15T06:19:01.720Z,83.8
2023-05-15T06:20:02.097Z,83.9
2023-05-15T06:21:01.529Z,83.9
2023-05-15T06:22:03.678Z,84.1
2023-05-15T06:23:03.139Z,84
2023-05-15T06:24:03.597Z,83.6
2023-05-15T06:25:01.364Z,83.4
2023-05-15T06:26:01.852Z,83.3
2023-05-15T06:27:02.350Z,83.1
2023-05-15T06:28:03.472Z,83.1
2023-05-15T06:29:02.270Z,82.9
2023-05-15T06:30:01.695Z,82.5
2023-05-15T06:31:03.942Z,82.5
2023-05-15T06:32:03.302Z,82.4
2023-05-15T06:33:02.111Z,82.2
2023-05-15T06:34:01.546Z,82.7
2023-05-15T06:35:01.991Z,82.9
2023-05-15T06:36:01.533Z,82.4
2023-05-15T06:37:02.006Z,82.4
2023-05-15T06:38:01.448Z,82.4
2023-05-15T06:39:01.925Z,81.6
2023-05-15T06:40:01.411Z,81.5
2023-05-15T06:41:03.525Z,81.5
2023-05-15T06:42:01.406Z,81.1
2023-05-15T06:43:01.853Z,80.6
2023-05-15T06:44:03.908Z,81.1
2023-05-15T06:45:01.768Z,80.6
2023-05-15T06:46:02.290Z,81.1
2023-05-15T06:47:01.934Z,81.1
2023-05-15T06:48:02.264Z,80.9
2023-05-15T06:49:01.603Z,80.9
2023-05-15T06:50:02.082Z,80.4
2023-05-15T06:51:01.547Z,80.2
2023-05-15T06:52:01.989Z,80.6
2023-05-15T06:53:01.455Z,80.3
2023-05-15T06:54:01.953Z,80.2
2023-05-15T06:55:01.433Z,80.3
2023-05-15T06:56:03.549Z,79.5
2023-05-15T06:57:01.360Z,80.2
2023-05-15T06:58:01.822Z,78
2023-05-15T06:59:02.321Z,76.9
2023-05-15T07:00:03.425Z,77.8
2023-05-15T07:01:02.271Z,78.4
2023-05-15T07:02:01.736Z,77.7
2023-05-15T07:03:02.206Z,78.1
2023-05-15T07:04:01.611Z,78.5
2023-05-15T07:05:02.221Z,78.5
2023-05-15T07:06:03.276Z,78.7
2023-05-15T07:07:02.134Z,78.3
2023-05-15T07:08:01.540Z,78
2023-05-15T07:09:03.677Z,77.6
2023-05-15T07:10:01.510Z,77.7
2023-05-15T07:11:01.925Z,78.3
2023-05-15T07:12:01.468Z,78.5
2023-05-15T07:13:03.599Z,78.3
2023-05-15T07:14:01.348Z,79.3
2023-05-15T07:15:03.537Z,78.9
2023-05-15T07:16:01.369Z,77.9
2023-05-15T07:17:01.974Z,77.9
2023-05-15T07:18:04.019Z,77.7
2023-05-15T07:19:01.880Z,77.6
2023-05-15T07:20:03.926Z,78.3
2023-05-15T07:21:01.695Z,78
2023-05-15T07:22:03.486Z,78
2023-05-15T07:23:01.840Z,78.6
2023-05-15T07:24:02.337Z,77.9
2023-05-15T07:25:01.774Z,77.1
2023-05-15T07:26:02.238Z,78
2023-05-15T07:27:01.680Z,78.1
2023-05-15T07:28:02.164Z,78.6
2023-05-15T07:29:01.677Z,78.3
2023-05-15T07:30:02.089Z,77.8
2023-05-15T07:31:02.821Z,79.1
2023-05-15T07:32:02.147Z,77.7
2023-05-15T07:33:01.574Z,77.7
2023-05-15T07:34:03.679Z,78.2
2023-05-15T07:35:03.120Z,78.8
2023-05-15T07:36:01.933Z,78.4
2023-05-15T07:37:01.378Z,78.6
2023-05-15T07:38:01.889Z,77.3
2023-05-15T07:39:01.364Z,77.8
2023-05-15T07:40:01.895Z,78.3
2023-05-15T07:41:03.921Z,78.5
2023-05-15T07:42:01.788Z,78.3
2023-05-15T07:43:02.252Z,76.8
2023-05-15T07:44:03.366Z,76.7
2023-05-15T07:45:03.867Z,77.3
2023-05-15T07:46:01.627Z,77.1
2023-05-15T07:47:02.092Z,77
2023-05-15T07:48:01.558Z,77
2023-05-15T07:49:02.075Z,78.3
2023-05-15T07:50:03.117Z,79.7
2023-05-15T07:51:03.590Z,79.3
2023-05-15T07:52:01.346Z,80
2023-05-15T07:53:01.857Z,77.9
2023-05-15T07:54:01.362Z,78.4
2023-05-15T07:55:01.859Z,77.9
2023-05-15T07:56:02.322Z,76.8
2023-05-15T07:57:01.757Z,77.1
2023-05-15T07:58:03.928Z,76.8
2023-05-15T07:59:01.793Z,76.5
2023-05-15T08:00:03.836Z,76.7
2023-05-15T08:01:01.634Z,77.7
2023-05-15T08:02:02.101Z,76.2
2023-05-15T08:03:03.267Z,75.4
2023-05-15T08:04:02.112Z,76.6
2023-05-15T08:05:01.433Z,74.7
2023-05-15T08:06:01.919Z,76.4
2023-05-15T08:07:01.439Z,75.1
2023-05-15T08:08:01.846Z,75.4
2023-05-15T08:09:01.415Z,76.3
2023-05-15T08:10:01.874Z,74
2023-05-15T08:11:02.326Z,74.9
2023-05-15T08:12:01.751Z,75.8
2023-05-15T08:13:02.272Z,73.7
2023-05-15T08:14:01.728Z,73.2
2023-05-15T08:15:03.832Z,72.9
2023-05-15T08:16:01.682Z,73.4
2023-05-15T08:17:03.845Z,72.6
2023-05-15T08:18:01.687Z,72.7
2023-05-15T08:19:03.779Z,73.8
2023-05-15T08:20:01.520Z,73.9
2023-05-15T08:21:02.989Z,74.8
2023-05-15T08:22:01.445Z,75.1
2023-05-15T08:23:03.590Z,75.1
2023-05-15T08:24:01.377Z,74.3
2023-05-15T08:25:01.842Z,76.1
2023-05-15T08:26:02.338Z,75.4
2023-05-15T08:27:03.439Z,74.5
2023-05-15T08:28:02.245Z,75.1
2023-05-15T08:29:02.153Z,74.6
2023-05-15T08:30:01.844Z,75
2023-05-15T08:31:02.358Z,72.2
2023-05-15T08:32:01.751Z,72.6
2023-05-15T08:33:02.284Z,71.5
2023-05-15T08:34:01.763Z,72.8
2023-05-15T08:35:02.244Z,73.6
2023-05-15T08:36:03.418Z,73.6
2023-05-15T08:37:02.152Z,72.2
2023-05-15T08:38:01.603Z,72.6
2023-05-15T08:39:02.072Z,72.7
2023-05-15T08:40:03.195Z,72.1
2023-05-15T08:41:01.991Z,70.8
2023-05-15T08:42:03.142Z,69.7
2023-05-15T08:43:01.908Z,69.8
2023-05-15T08:44:01.425Z,70.4
2023-05-15T08:45:02.064Z,69.5
2023-05-15T08:46:01.367Z,70.9
2023-05-15T08:47:01.880Z,71.2
2023-05-15T08:48:01.494Z,68.4
2023-05-15T08:49:01.895Z,70
2023-05-15T08:50:02.264Z,70.4
2023-05-15T08:51:03.436Z,68.3
2023-05-15T08:52:02.151Z,65.9
2023-05-15T08:53:01.688Z,68
2023-05-15T08:54:03.766Z,67.7
2023-05-15T08:55:01.658Z,68.5
2023-05-15T08:56:03.689Z,69.3
2023-05-15T08:57:01.516Z,67.8
2023-05-15T08:58:02.001Z,67.6
2023-05-15T08:59:01.444Z,65.5
2023-05-15T09:00:01.958Z,66.1
2023-05-15T09:01:01.364Z,68.1
2023-05-15T09:02:01.918Z,67.9
2023-05-15T09:03:03.125Z,68.2
2023-05-15T09:04:01.915Z,68.7
2023-05-15T09:05:04.008Z,69.3
2023-05-15T09:06:01.763Z,69.9
2023-05-15T09:07:02.240Z,68.6
2023-05-15T09:08:01.685Z,68.9
2023-05-15T09:09:02.277Z,67.5
2023-05-15T09:10:03.365Z,68.1
2023-05-15T09:11:02.175Z,68.5
2023-05-15T09:12:01.610Z,69.1
2023-05-15T09:13:02.079Z,68.5
2023-05-15T09:14:01.602Z,68.9
2023-05-15T09:15:03.754Z,69.5
2023-05-15T09:16:01.533Z,70.6
2023-05-15T09:17:02.257Z,71.1
2023-05-15T09:18:03.141Z,69.6
2023-05-15T09:19:01.955Z,68.5
2023-05-15T09:20:01.368Z,69.4
2023-05-15T09:21:01.893Z,69
2023-05-15T09:22:01.361Z,68.2
2023-05-15T09:23:01.868Z,69.8
2023-05-15T09:24:02.358Z,67.5
2023-05-15T09:25:03.449Z,67.9
2023-05-15T09:26:02.246Z,67.8
2023-05-15T09:27:01.675Z,68.4
2023-05-15T09:28:02.176Z,69.1
2023-05-15T09:29:01.678Z,69.9
2023-05-15T09:30:03.842Z,68.7
2023-05-15T09:31:01.612Z,67.5
2023-05-15T09:32:02.166Z,69.4
2023-05-15T09:33:01.669Z,68.6
2023-05-15T09:34:02.102Z,67.3
2023-05-15T09:35:02.592Z,67.4
2023-05-15T09:36:02.235Z,66.7
2023-05-15T09:37:01.683Z,65.4
2023-05-15T09:38:02.199Z,67.1
2023-05-15T09:39:01.625Z,68.3
2023-05-15T09:40:02.080Z,66.2
2023-05-15T09:41:01.598Z,65.4
2023-05-15T09:42:03.678Z,66.8
2023-05-15T09:43:03.164Z,65.8
2023-05-15T09:44:03.593Z,66.9
2023-05-15T09:45:01.448Z,65.3
2023-05-15T09:46:02.039Z,66
2023-05-15T09:47:01.469Z,65.3
2023-05-15T09:48:01.986Z,65.6
2023-05-15T09:49:03.932Z,66.4
2023-05-15T09:50:01.770Z,66.5
2023-05-15T09:51:03.837Z,66.3
2023-05-15T09:52:01.740Z,65.6
2023-05-15T09:53:02.154Z,65.4
2023-05-15T09:54:01.609Z,67.1
2023-05-15T09:55:02.170Z,66.8
2023-05-15T09:56:01.537Z,67.8
2023-05-15T09:57:03.678Z,68.3
2023-05-15T09:58:01.524Z,67.8
2023-05-15T09:59:01.931Z,67.1
2023-05-15T10:00:01.455Z,67.2
2023-05-15T10:01:01.990Z,66.2
2023-05-15T10:02:03.080Z,67.4
2023-05-15T10:03:03.570Z,66.6
2023-05-15T10:04:02.328Z,67.2
2023-05-15T10:05:01.860Z,68.1
2023-05-15T10:06:02.323Z,66.7
2023-05-15T10:07:01.679Z,63.5
2023-05-15T10:08:02.163Z,62.1
2023-05-15T10:09:03.299Z,62
2023-05-15T10:10:02.082Z,62
2023-05-15T10:11:03.244Z,63.5
2023-05-15T10:12:03.694Z,62.9
2023-05-15T10:13:01.445Z,60.9
2023-05-15T10:14:01.925Z,62.6
2023-05-15T10:15:03.119Z,63.7
2023-05-15T10:16:03.795Z,63.8
2023-05-15T10:17:02.974Z,64.2
2023-05-15T10:18:01.867Z,63.7
2023-05-15T10:19:03.559Z,61.8
2023-05-15T10:20:01.772Z,62.3
2023-05-15T10:21:02.241Z,61.6
2023-05-15T10:22:01.685Z,63.5
2023-05-15T10:23:02.188Z,65.8
2023-05-15T10:24:01.621Z,65.6
2023-05-15T10:25:02.075Z,64.5
2023-05-15T10:26:01.515Z,64.8
2023-05-15T10:27:03.673Z,63
2023-05-15T10:28:03.226Z,62.5
2023-05-15T10:29:02.002Z,64.7
2023-05-15T10:30:01.493Z,62.4
2023-05-15T10:31:01.986Z,62.9
2023-05-15T10:32:03.052Z,63.7
2023-05-15T10:33:03.577Z,64.9
2023-05-15T10:34:02.390Z,63.2
2023-05-15T10:35:01.770Z,65.3
2023-05-15T10:36:02.250Z,64.8
2023-05-15T10:37:01.705Z,64.9
2023-05-15T10:38:02.176Z,65.1
2023-05-15T10:39:03.361Z,65
2023-05-15T10:40:02.179Z,65.2
2023-05-15T10:41:16.514Z,65.7
2023-05-15T10:42:01.394Z,65.7
2023-05-15T10:43:03.512Z,65.1
2023-05-15T10:44:02.324Z,66.2
2023-05-15T10:45:01.776Z,68
2023-05-15T10:46:02.248Z,66.5
2023-05-15T10:47:01.810Z,67.4
2023-05-15T10:48:02.353Z,69.6
2023-05-15T10:49:01.605Z,68.9
2023-05-15T10:50:02.077Z,65.9
2023-05-15T10:51:01.557Z,64.2
2023-05-15T10:52:02.013Z,64.9
2023-05-15T10:53:03.224Z,64.9
2023-05-15T10:54:02.011Z,62.6
2023-05-15T10:55:03.115Z,62.6
2023-05-15T10:56:02.014Z,64.9
2023-05-15T10:57:01.374Z,63.4
2023-05-15T10:58:01.860Z,63.2
2023-05-15T10:59:01.370Z,63.5
2023-05-15T11:00:01.798Z,63.6
2023-05-15T11:01:36.277Z,62.7
2023-05-15T11:02:03.508Z,64.2
2023-05-15T11:03:02.267Z,64.1
2023-05-15T11:04:01.881Z,62.9
2023-05-15T11:05:01.392Z,64.5
2023-05-15T11:06:02.017Z,64.4
2023-05-15T11:07:01.535Z,65.2
2023-05-15T11:08:03.689Z,62.3
2023-05-15T11:09:01.722Z,61.6
2023-05-15T11:10:03.685Z,62.2
2023-05-15T11:11:01.802Z,61.2
2023-05-15T11:12:03.230Z,58.2
2023-05-15T11:13:02.090Z,58.4
2023-05-15T11:14:01.539Z,60.4
2023-05-15T11:15:02.102Z,58.9
2023-05-15T11:16:01.613Z,58.6
2023-05-15T11:17:02.172Z,56.9
2023-05-15T11:18:01.627Z,57.4
2023-05-15T11:19:02.175Z,56.9
2023-05-15T11:20:01.716Z,57.6
2023-05-15T11:21:02.199Z,58.2
2023-05-15T11:22:03.392Z,56.8
2023-05-15T11:23:01.447Z,58.2
2023-05-15T11:24:02.092Z,58.9
2023-05-15T11:25:03.394Z,57.8
2023-05-15T11:26:03.912Z,58.3
2023-05-15T11:27:03.376Z,58.3
2023-05-15T11:28:01.365Z,56.5
2023-05-15T11:29:03.847Z,56.1
2023-05-15T11:30:01.861Z,56.1
2023-05-15T11:31:01.600Z,55.8
2023-05-15T11:32:02.168Z,57.9
2023-05-15T11:33:01.782Z,58.3
2023-05-15T11:34:03.042Z,56.6
2023-05-15T11:35:03.524Z,56.4
2023-05-15T11:36:01.412Z,57.2
2023-05-15T11:37:01.377Z,56.2
2023-05-15T11:38:03.982Z,57
2023-05-15T11:39:01.761Z,55.7
2023-05-15T11:41:02.103Z,56.8
2023-05-15T11:42:01.978Z,59.1
2023-05-15T11:43:01.520Z,58
2023-05-15T11:44:03.756Z,58.2
2023-05-15T11:45:01.598Z,59.4
2023-05-15T11:46:03.770Z,56.8
2023-05-15T11:47:01.583Z,57.8
2023-05-15T11:48:02.095Z,58.3
2023-05-15T11:49:03.110Z,57.7
2023-05-15T11:50:03.604Z,58
2023-05-15T11:51:01.466Z,61
2023-05-15T11:52:01.867Z,59.9
2023-05-15T11:54:01.754Z,59.8
2023-05-15T11:55:03.909Z,60.9
2023-05-15T11:56:01.763Z,60.2
2023-05-15T11:57:03.857Z,62
2023-05-15T11:58:01.684Z,62.1
2023-05-15T11:59:02.201Z,60.5
2023-05-15T12:00:01.598Z,60.6
2023-05-15T12:01:02.075Z,60
2023-05-15T12:02:01.592Z,60.1
2023-05-15T12:03:03.958Z,61.1
2023-05-15T12:04:01.769Z,61.2
2023-05-15T12:05:02.113Z,60.2
2023-05-15T12:06:01.430Z,59.6
2023-05-15T12:07:03.115Z,59.5
2023-05-15T12:08:01.351Z,60.3
2023-05-15T12:09:03.588Z,61
2023-05-15T12:11:01.860Z,62
2023-05-15T12:12:03.903Z,60.7
2023-05-15T12:13:01.753Z,62.3
2023-05-15T12:14:03.858Z,61.4
2023-05-15T12:15:01.675Z,63.1
2023-05-15T12:16:02.250Z,60.7
2023-05-15T12:17:01.654Z,61.7
2023-05-15T12:18:02.090Z,61.3
2023-05-15T12:19:01.674Z,62.8
2023-05-15T12:20:02.089Z,61.7
2023-05-15T12:21:03.192Z,61.6
2023-05-15T12:22:02.001Z,60.3
2023-05-15T12:23:01.433Z,60.8
2023-05-15T12:25:03.052Z,60.1
2023-05-15T12:26:01.830Z,61.6
2023-05-15T12:27:01.394Z,59.2
2023-05-15T12:28:01.854Z,60
2023-05-15T12:29:03.983Z,60.6
2023-05-15T12:30:01.778Z,59.8
2023-05-15T12:31:02.240Z,61.3
2023-05-15T12:32:01.758Z,59.4
2023-05-15T12:33:02.251Z,60.3
2023-05-15T12:34:01.703Z,59.9
2023-05-15T12:35:02.146Z,58.9
2023-05-15T12:36:03.293Z,59.1
2023-05-15T12:37:02.105Z,59.8
2023-05-15T12:38:03.210Z,58.3
2023-05-15T12:39:02.003Z,57.9
2023-05-15T12:40:03.121Z,57.4
2023-05-15T12:41:01.921Z,59.3
2023-05-15T12:42:01.458Z,57.9
2023-05-15T12:43:03.581Z,58.7
2023-05-15T12:44:01.359Z,56.6
2023-05-15T12:45:01.869Z,56.5
2023-05-15T12:46:01.391Z,57.1
2023-05-15T12:47:01.846Z,58.5
2023-05-15T12:48:02.392Z,58.6
2023-05-15T12:49:01.997Z,57.8
2023-05-15T12:50:01.894Z,55.8
2023-05-15T12:51:01.369Z,56.8
2023-05-15T12:52:03.454Z,56
2023-05-15T12:53:02.254Z,56.9
2023-05-15T12:54:03.370Z,57.3
2023-05-15T12:55:02.185Z,55.7
2023-05-15T12:56:01.689Z,55.2
2023-05-15T12:57:02.284Z,56.2
2023-05-15T12:58:01.604Z,56
2023-05-15T12:59:02.107Z,57.3
2023-05-15T13:00:01.615Z,55.9
2023-05-15T13:01:02.064Z,57.3
2023-05-15T13:02:01.453Z,57.9
2023-05-15T13:03:02.119Z,57.3
2023-05-15T13:04:01.545Z,57.4
2023-05-15T13:05:01.945Z,59.8
2023-05-15T13:06:01.374Z,57.4
2023-05-15T13:07:01.854Z,57.3
2023-05-15T13:08:02.333Z,58.1
2023-05-15T13:09:01.776Z,60.9
2023-05-15T13:10:02.256Z,59.3
2023-05-15T13:11:01.701Z,57.9
2023-05-15T13:12:02.169Z,59.2
2023-05-15T13:13:01.716Z,57.6
2023-05-15T13:14:02.162Z,57.5
2023-05-15T13:15:03.316Z,57.3
2023-05-15T13:16:02.121Z,58.9
2023-05-15T13:17:03.204Z,58.5
2023-05-15T13:18:02.098Z,56.9
2023-05-15T13:19:03.138Z,57.9
2023-05-15T13:20:02.006Z,58.5
2023-05-15T13:21:01.471Z,59.8
2023-05-15T13:22:01.926Z,56.6
2023-05-15T13:23:03.053Z,56.4
2023-05-15T13:24:01.854Z,58.5
2023-05-15T13:25:02.330Z,57.1
2023-05-15T13:26:01.762Z,58.5
2023-05-15T13:27:02.244Z,57.7
2023-05-15T13:28:01.766Z,57.2